createdAt,value
2018-02-22T07:20:57.721Z,20.80
2018-02-22T07:21:57.733Z,20.90
2018-02-22T07:24:01.830Z,20.91
2018-02-22T07:25:01.801Z,20.81
2018-02-22T07:27:06.111Z,20.91
2018-02-22T07:28:05.890Z,21.01
2018-02-22T07:30:10.055Z,21.01
2018-02-22T07:31:10.046Z,21.01
2018-02-22T07:33:03.086Z,20.72
2018-02-22T07:34:03.081Z,21.20
2018-02-22T07:36:07.209Z,20.91
2018-02-22T07:37:07.203Z,21.20
2018-02-22T07:39:11.779Z,21.68
2018-02-22T07:40:11.359Z,21.78
2018-02-22T07:41:11.456Z,21.68
2018-02-22T07:42:11.412Z,21.78
2018-02-22T07:43:11.501Z,21.58
2018-02-22T07:44:11.462Z,21.78
2018-02-22T07:45:11.499Z,21.88
2018-02-22T07:46:11.557Z,22.64
2018-02-22T07:47:11.583Z,22.26
2018-02-22T07:48:11.613Z,22.64
2018-02-22T07:49:11.639Z,22.93
2018-02-22T07:50:11.714Z,22.66
2018-02-22T07:51:11.763Z,21.98
2018-02-22T07:52:11.753Z,22.56
2018-02-22T07:53:11.848Z,22.17
2018-02-22T07:54:11.829Z,21.59
2018-02-22T07:55:11.931Z,21.88
2018-02-22T07:57:11.953Z,22.08
2018-02-22T07:58:12.697Z,22.56
2018-02-22T07:59:12.753Z,21.79
2018-02-22T08:00:12.058Z,22.76
2018-02-22T08:01:12.138Z,21.98
2018-02-22T08:02:12.176Z,21.70
2018-02-22T08:03:13.195Z,21.89
2018-02-22T08:04:12.204Z,21.89
2018-02-22T08:05:12.256Z,21.89
2018-02-22T08:06:12.313Z,21.80
2018-02-22T08:07:12.334Z,21.61
2018-02-22T08:08:12.373Z,21.89
2018-02-22T08:10:12.595Z,21.70
2018-02-22T08:12:58.397Z,21.80
2018-02-22T08:13:49.738Z,21.61
2018-02-22T08:14:51.738Z,21.80
2018-02-22T08:15:48.260Z,21.99
2018-02-22T08:16:51.747Z,22.28
2018-02-22T08:17:41.751Z,22.19
2018-02-22T08:18:44.245Z,21.80
2018-02-22T08:19:47.248Z,22.09
2018-02-22T08:20:42.753Z,22.39
2018-02-22T08:21:44.029Z,21.91
2018-02-22T08:22:52.241Z,22.29
2018-02-22T08:23:39.416Z,22.49
2018-02-22T08:24:53.740Z,23.35
2018-02-22T08:25:37.742Z,21.71
2018-02-22T08:26:47.441Z,21.81
2018-02-22T08:27:55.906Z,21.71
2018-02-22T08:28:44.776Z,22.19
2018-02-22T08:29:46.741Z,22.10
2018-02-22T08:30:48.742Z,21.91
2018-02-22T08:31:37.763Z,22.00
2018-02-22T08:32:47.989Z,21.91
2018-02-22T08:33:46.586Z,21.62
2018-02-22T08:34:42.782Z,21.91
2018-02-22T08:35:50.364Z,22.00
2018-02-22T08:36:48.242Z,22.19
2018-02-22T08:37:45.101Z,22.78
2018-02-22T08:38:40.145Z,22.10
2018-02-22T08:40:39.742Z,22.88
2018-02-22T08:41:52.746Z,22.20
2018-02-22T08:42:44.278Z,22.30
2018-02-22T08:43:42.244Z,22.20
2018-02-22T08:45:55.745Z,22.20
2018-02-22T08:46:49.338Z,22.69
2018-02-22T08:47:45.869Z,22.59
2018-02-22T08:48:49.746Z,22.78
2018-02-22T08:49:40.746Z,22.31
2018-02-22T08:50:45.744Z,22.12
2018-02-22T08:51:47.933Z,22.41
2018-02-22T08:52:37.746Z,22.12
2018-02-22T08:53:38.746Z,22.50
2018-02-22T08:54:30.426Z,22.99
2018-02-22T08:56:31.748Z,22.99
2018-02-22T08:57:44.084Z,22.89
2018-02-22T08:58:49.245Z,24.15
2018-02-22T08:59:41.402Z,23.58
2018-02-22T09:00:30.247Z,23.49
2018-02-22T09:01:43.249Z,23.49
2018-02-22T09:02:35.355Z,24.26
2018-02-22T09:03:41.247Z,23.00
2018-02-22T09:04:42.052Z,22.81
2018-02-22T09:05:32.542Z,23.00
2018-02-22T09:06:40.246Z,22.91
2018-02-22T09:07:36.394Z,23.00
2018-02-22T09:08:49.964Z,23.49
2018-02-22T09:09:33.248Z,22.71
2018-02-22T09:10:36.746Z,22.61
2018-02-22T09:11:32.664Z,22.91
2018-02-22T09:12:44.975Z,22.91
2018-02-22T09:13:48.787Z,23.19
2018-02-22T09:14:33.941Z,22.52
2018-02-22T09:15:51.162Z,22.33
2018-02-22T09:16:44.252Z,24.45
2018-02-22T09:17:38.046Z,23.40
2018-02-22T09:18:37.291Z,22.33
2018-02-22T09:20:42.749Z,21.75
2018-02-22T09:21:50.749Z,21.75
2018-02-22T09:22:51.250Z,21.85
2018-02-22T09:23:42.252Z,21.17
2018-02-22T09:24:42.700Z,20.21
2018-02-22T09:25:47.750Z,19.15
2018-02-22T09:26:41.249Z,19.05
2018-02-22T09:27:49.756Z,19.35
2018-02-22T09:28:52.765Z,19.25
2018-02-22T09:29:43.249Z,19.25
2018-02-22T09:30:43.252Z,19.15
2018-02-22T09:31:43.750Z,19.34
2018-02-22T09:32:48.490Z,19.25
2018-02-22T09:33:43.787Z,18.96
2018-02-22T09:34:56.494Z,18.48
2018-02-22T09:35:36.038Z,18.87
2018-02-22T09:36:44.251Z,19.25
2018-02-22T09:37:41.753Z,19.15
2018-02-22T09:38:47.251Z,18.95
2018-02-22T09:39:50.997Z,19.53
2018-02-22T09:40:29.806Z,19.64
2018-02-22T09:41:34.975Z,19.25
2018-02-22T09:42:43.273Z,19.35
2018-02-22T09:43:42.536Z,19.73
2018-02-22T09:44:25.148Z,19.73
2018-02-22T09:45:30.864Z,20.03
2018-02-22T09:46:29.886Z,19.92
2018-02-22T09:47:40.092Z,19.63
2018-02-22T09:48:36.298Z,20.21
2018-02-22T09:49:30.252Z,19.92
2018-02-22T09:51:41.258Z,19.73
2018-02-22T09:52:49.757Z,20.31
